Time;durP1;ratioP1;P1;durP2;ratioP2;P2;SDS_P1;SDS_P2;PMS_P1;PMS_P2;Temp;Humidity;BMP_temperature;BMP_pressure;BME280_temperature;BME280_humidity;BME280_pressure;Samples;Min_cycle;Max_cycle;Signal;HPM_P1;HPM_P2
2021/06/15 00:02:08;;;;;;;6.70;5.10;;;;;;;23.89;59.78;99635.37;1809442;78;21014;-69
2021/06/15 00:04:36;;;;;;;8.70;6.10;;;;;;;23.87;59.80;99638.89;1807503;79;21013;-68
2021/06/15 00:07:03;;;;;;;6.08;5.58;;;;;;;23.85;59.93;99638.33;1809495;77;21318;-68
2021/06/15 00:09:32;;;;;;;6.60;5.87;;;;;;;23.75;60.08;99623.57;1810366;77;21212;-68
2021/06/15 00:11:58;;;;;;;6.97;6.37;;;;;;;23.80;60.17;99631.50;1810426;78;21002;-70
2021/06/15 00:14:25;;;;;;;7.03;5.53;;;;;;;23.77;60.30;99630.09;1797807;79;20989;-69
2021/06/15 00:16:51;;;;;;;7.30;5.62;;;;;;;23.74;60.39;99633.34;1805265;78;20981;-69
2021/06/15 00:19:18;;;;;;;6.62;6.03;;;;;;;23.71;60.54;99625.16;1802112;78;21037;-68
2021/06/15 00:21:45;;;;;;;6.10;5.50;;;;;;;23.68;60.65;99624.86;1807320;79;21178;-70
2021/06/15 00:24:11;;;;;;;6.47;5.83;;;;;;;23.66;60.75;99629.72;1808950;77;21426;-69
2021/06/15 00:26:38;;;;;;;8.23;6.03;;;;;;;23.64;60.90;99630.00;1803735;77;21064;-69
2021/06/15 00:29:04;;;;;;;6.30;5.70;;;;;;;23.62;60.99;99623.17;1807180;77;20998;-69
2021/06/15 00:31:33;;;;;;;6.15;5.55;;;;;;;23.59;61.08;99628.59;1809699;77;21182;-70
2021/06/15 00:33:59;;;;;;;7.50;5.72;;;;;;;23.58;61.08;99623.41;1807701;78;21141;-69
2021/06/15 00:36:26;;;;;;;7.72;6.45;;;;;;;23.55;61.12;99624.21;1808287;77;21045;-70
2021/06/15 00:38:53;;;;;;;7.25;5.97;;;;;;;23.54;61.15;99617.14;1807169;79;21037;-68
2021/06/15 00:41:19;;;;;;;8.65;6.40;;;;;;;23.53;61.15;99614.16;1808131;78;21049;-68
2021/06/15 00:43:48;;;;;;;9.58;6.08;;;;;;;23.53;61.13;99613.35;1785746;79;21527;-69
2021/06/15 00:46:14;;;;;;;10.48;6.12;;;;;;;23.54;61.07;99618.49;1807608;78;21170;-68
2021/06/15 00:48:41;;;;;;;8.90;5.70;;;;;;;23.53;61.04;99614.16;1807858;78;21025;-69
2021/06/15 00:51:10;;;;;;;7.08;6.47;;;;;;;23.52;60.98;99613.87;1814391;79;21046;-69
2021/06/15 00:53:37;;;;;;;8.18;5.45;;;;;;;23.52;60.94;99618.48;1814551;79;21483;-68
2021/06/15 00:56:05;;;;;;;6.87;5.65;;;;;;;23.51;60.89;99616.31;1808625;78;21114;-68
2021/06/15 00:58:32;;;;;;;7.78;5.97;;;;;;;23.50;60.87;99609.78;1784295;78;21145;-69
2021/06/15 01:01:01;;;;;;;10.08;7.03;;;;;;;23.48;60.88;99614.10;1788994;78;21097;-68
2021/06/15 01:03:29;;;;;;;6.50;5.87;;;;;;;23.48;60.91;99611.94;1795901;78;20983;-69
2021/06/15 01:05:55;;;;;;;6.40;5.72;;;;;;;23.48;60.94;99611.39;1793177;78;21088;-68
2021/06/15 01:08:55;;;;;;;6.53;5.90;;;;;;;23.48;60.94;99614.65;1786096;79;21021;-67
2021/06/15 01:11:50;;;;;;;14.03;6.03;;;;;;;23.45;60.93;99614.63;1793428;79;21150;-68
2021/06/15 01:14:24;;;;;;;7.08;5.55;;;;;;;23.40;61.02;99607.80;1775767;79;21030;-69
2021/06/15 01:17:00;;;;;;;6.95;5.62;;;;;;;23.37;61.11;99609.65;1780568;79;21107;-69
2021/06/15 01:19:50;;;;;;;6.53;5.67;;;;;;;23.34;61.18;99610.18;1805911;78;20982;-69
2021/06/15 01:22:50;;;;;;;8.85;6.60;;;;;;;23.31;61.25;99614.23;1799791;78;21002;-70
2021/06/15 01:25:44;;;;;;;9.03;6.35;;;;;;;23.28;61.34;99613.92;1799198;78;21807;-69
2021/06/15 01:28:25;;;;;;;6.15;5.55;;;;;;;23.25;61.46;99619.28;1805690;79;21028;-68
2021/06/15 01:31:06;;;;;;;7.15;5.42;;;;;;;23.22;61.55;99615.75;1780546;79;21000;-69
2021/06/15 01:33:35;;;;;;;10.58;6.03;;;;;;;23.20;61.60;99612.48;1805014;78;21627;-69
2021/06/15 01:36:02;;;;;;;7.17;6.30;;;;;;;23.16;61.65;99614.88;1813783;77;21036;-69
2021/06/15 01:38:41;;;;;;;32.00;25.85;;;;;;;23.15;61.72;99615.13;1817591;78;21872;-70
2021/06/15 01:41:13;;;;;;;18.25;13.83;;;;;;;23.14;61.79;99613.47;1819169;78;21040;-70
2021/06/15 01:43:43;;;;;;;11.78;9.20;;;;;;;23.11;61.87;99612.64;1821445;77;21001;-70
2021/06/15 01:46:17;;;;;;;7.90;7.15;;;;;;;23.02;61.95;99593.81;1810412;77;20990;-70
2021/06/15 01:49:02;;;;;;;7.70;6.97;;;;;;;23.08;62.02;99607.20;1817119;78;21594;-70
2021/06/15 01:51:25;;;;;;;7.50;6.90;;;;;;;23.07;62.10;99615.58;1818145;78;21958;-70
2021/06/15 01:54:08;;;;;;;6.58;5.97;;;;;;;23.04;62.21;99616.88;1819390;78;21049;-69
2021/06/15 01:56:34;;;;;;;6.40;5.85;;;;;;;23.03;62.28;99619.33;1827191;77;20993;-69
2021/06/15 01:59:04;;;;;;;6.40;5.87;;;;;;;23.01;62.36;99617.38;1827048;78;21032;-69
2021/06/15 02:01:34;;;;;;;7.10;5.92;;;;;;;23.00;62.42;99617.63;1811942;77;21550;-68
2021/06/15 02:04:03;;;;;;;6.72;5.53;;;;;;;22.99;62.49;99616.00;1797282;78;21956;-69
2021/06/15 02:06:30;;;;;;;6.08;5.53;;;;;;;22.97;62.55;99615.70;1796941;77;20994;-69
2021/06/15 02:08:57;;;;;;;6.95;6.05;;;;;;;22.96;62.61;99617.31;1815999;78;21501;-68
2021/06/15 02:11:29;;;;;;;6.28;5.72;;;;;;;22.93;62.64;99621.34;1808697;78;21469;-69
2021/06/15 02:14:03;;;;;;;6.22;5.45;;;;;;;22.93;62.69;99620.53;1791097;78;21025;-70
2021/06/15 02:16:31;;;;;;;6.42;5.83;;;;;;;22.90;62.76;99618.33;1807967;78;21713;-69
2021/06/15 02:19:20;;;;;;;6.15;5.50;;;;;;;22.88;62.79;99626.69;1808928;78;21173;-68
2021/06/15 02:21:55;;;;;;;6.60;6.03;;;;;;;22.87;62.86;99626.94;1804832;78;21041;-69
2021/06/15 02:24:33;;;;;;;6.08;5.47;;;;;;;22.82;62.92;99622.29;1828595;78;21076;-69
2021/06/15 02:27:00;;;;;;;7.72;7.00;;;;;;;22.81;63.02;99625.24;1796354;78;21012;-70
2021/06/15 02:29:27;;;;;;;6.15;5.65;;;;;;;22.78;63.11;99625.22;1790821;78;21066;-70
2021/06/15 02:32:00;;;;;;;6.33;5.83;;;;;;;22.75;63.23;99628.42;1821122;78;21104;-69
2021/06/15 02:34:27;;;;;;;5.97;5.47;;;;;;;22.73;63.33;99622.44;1828528;78;28484;-69
2021/06/15 02:36:55;;;;;;;6.72;5.35;;;;;;;22.74;63.40;99628.15;1801419;79;21048;-70
2021/06/15 02:39:29;;;;;;;7.00;5.80;;;;;;;22.74;63.42;99629.50;1792973;79;20970;-68
2021/06/15 02:41:58;;;;;;;6.25;5.75;;;;;;;22.73;63.47;99630.02;1813941;78;21049;-68
2021/06/15 02:44:29;;;;;;;7.17;5.47;;;;;;;22.73;63.53;99634.63;1814161;78;21050;-69
2021/06/15 02:46:57;;;;;;;6.55;5.75;;;;;;;22.72;63.61;99638.42;1802603;78;21065;-69
2021/06/15 02:49:31;;;;;;;6.97;6.47;;;;;;;22.72;63.73;99637.06;1814169;79;21038;-69
2021/06/15 02:52:18;;;;;;;6.47;5.97;;;;;;;22.73;63.76;99635.97;1812672;78;21046;-69
2021/06/15 02:54:57;;;;;;;7.55;6.03;;;;;;;22.72;63.81;99635.70;1793787;78;21109;-69
2021/06/15 02:57:28;;;;;;;6.92;6.20;;;;;;;22.70;63.90;99631.08;1813152;79;21038;-68
2021/06/15 02:59:58;;;;;;;6.40;5.90;;;;;;;22.69;64.02;99634.84;1796505;79;21013;-68
2021/06/15 03:02:27;;;;;;;6.53;6.03;;;;;;;22.69;64.11;99634.84;1810126;79;20999;-69
2021/06/15 03:04:54;;;;;;;8.60;6.20;;;;;;;22.68;64.24;99634.58;1792545;78;21036;-69
2021/06/15 03:07:22;;;;;;;6.97;6.28;;;;;;;22.67;64.41;99634.28;1776553;79;21552;-69
2021/06/15 03:09:50;;;;;;;8.30;7.37;;;;;;;22.73;64.50;99629.20;1814328;78;20974;-69
2021/06/15 03:12:24;;;;;;;9.55;8.55;;;;;;;22.83;64.33;99629.88;1812056;79;21001;-70
2021/06/15 03:14:55;;;;;;;8.53;7.50;;;;;;;22.83;64.49;99635.29;1783192;78;20991;-70
2021/06/15 03:17:22;;;;;;;8.23;7.45;;;;;;;22.83;64.83;99636.64;1804472;79;21052;-69
2021/06/15 03:19:55;;;;;;;7.90;7.20;;;;;;;22.83;65.19;99641.55;1814385;78;21479;-70
2021/06/15 03:22:22;;;;;;;;;;;;;;;22.84;65.62;99639.64;1816873;79;21006;-70
2021/06/15 03:24:56;;;;;;;7.42;6.20;;;;;;;22.84;66.06;99639.10;1799465;78;21050;-69
2021/06/15 03:27:34;;;;;;;;;;;;;;;22.78;66.52;99638.76;1813658;78;21096;-70
2021/06/15 03:30:07;;;;;;;8.15;7.17;;;;;;;22.78;66.89;99639.57;1809041;79;20207;-70
2021/06/15 03:32:36;;;;;;;7.45;6.85;;;;;;;22.73;67.26;99638.69;1814726;78;21719;-70
2021/06/15 03:35:03;;;;;;;7.72;6.33;;;;;;;22.77;67.52;99638.46;1803822;78;21552;-69
2021/06/15 03:37:30;;;;;;;7.37;6.65;;;;;;;22.80;67.74;99638.52;1807545;78;21061;-69
2021/06/15 03:39:58;;;;;;;7.97;7.17;;;;;;;22.90;67.83;99637.28;1819562;78;21032;-70
2021/06/15 03:42:29;;;;;;;7.90;7.20;;;;;;;23.03;67.65;99639.64;1809823;78;21137;-70
2021/06/15 03:45:05;;;;;;;7.97;7.28;;;;;;;23.04;67.64;99637.75;1804410;78;21078;-71
2021/06/15 03:47:31;;;;;;;8.33;7.17;;;;;;;23.08;67.60;99643.78;1825716;78;20998;-69
2021/06/15 03:49:58;;;;;;;8.23;7.20;;;;;;;23.11;67.63;99650.57;1825809;78;21021;-69
2021/06/15 03:52:28;;;;;;;8.70;7.08;;;;;;;23.14;67.63;99650.89;1818701;78;21039;-69
2021/06/15 03:54:56;;;;;;;16.42;14.83;;;;;;;23.17;67.58;99646.84;1809994;78;21007;-70
2021/06/15 03:57:25;;;;;;;12.93;11.63;;;;;;;23.20;67.46;99646.35;1824703;78;21136;-70
2021/06/15 03:59:53;;;;;;;12.47;9.65;;;;;;;23.23;67.33;99647.73;1797431;78;21021;-69
2021/06/15 04:02:20;;;;;;;12.50;9.15;;;;;;;23.26;67.27;99655.36;1813276;78;21096;-69
2021/06/15 04:04:47;;;;;;;9.63;8.13;;;;;;;23.28;67.25;99654.02;1806106;78;20985;-69
2021/06/15 04:07:20;;;;;;;9.58;8.23;;;;;;;23.31;67.22;99655.39;1802707;78;22198;-68
2021/06/15 04:09:49;;;;;;;10.35;7.92;;;;;;;23.34;67.25;99652.19;1826320;78;21081;-68
2021/06/15 04:12:16;;;;;;;8.38;7.37;;;;;;;23.38;67.27;99655.21;1825007;78;21548;-68
2021/06/15 04:14:44;;;;;;;7.75;7.08;;;;;;;23.47;67.11;99660.44;1793643;78;21039;-69
2021/06/15 04:17:14;;;;;;;10.23;7.75;;;;;;;23.60;66.80;99648.38;1813638;78;21084;-69
2021/06/15 04:19:43;;;;;;;10.38;7.20;;;;;;;23.64;66.74;99652.20;1808056;78;21049;-69
2021/06/15 04:22:14;;;;;;;7.85;7.22;;;;;;;23.67;66.77;99651.16;1822202;78;21005;-69
2021/06/15 04:24:47;;;;;;;8.58;7.78;;;;;;;23.72;66.65;99652.58;1823294;78;21595;-69
2021/06/15 04:27:16;;;;;;;9.18;7.75;;;;;;;23.77;66.57;99647.73;1825965;78;21037;-69
2021/06/15 04:29:43;;;;;;;8.68;6.92;;;;;;;23.82;66.47;99650.53;1800417;78;21069;-70
2021/06/15 04:32:10;;;;;;;15.05;7.55;;;;;;;23.86;66.23;99656.26;1820633;77;21064;-69
2021/06/15 04:34:45;;;;;;;9.93;7.85;;;;;;;23.91;66.06;99660.35;1796936;78;20994;-68
2021/06/15 04:37:11;;;;;;;8.43;7.60;;;;;;;23.97;65.87;99662.06;1802582;77;21140;-69
2021/06/15 04:39:42;;;;;;;8.25;7.55;;;;;;;24.06;65.75;99655.59;1806653;77;21017;-68
2021/06/15 04:42:12;;;;;;;8.63;7.72;;;;;;;24.13;65.56;99658.92;1803324;77;21569;-68
2021/06/15 04:44:42;;;;;;;9.00;7.83;;;;;;;24.21;65.37;99663.86;1798982;77;21069;-68
2021/06/15 04:47:27;;;;;;;8.30;7.70;;;;;;;24.26;65.16;99661.20;1803031;77;21726;-68
2021/06/15 04:50:10;;;;;;;9.38;7.87;;;;;;;24.31;65.06;99663.11;1802615;77;21042;-68
2021/06/15 04:52:36;;;;;;;;;;;;;;;24.37;64.73;99660.70;1803677;77;21470;-68
2021/06/15 04:55:05;;;;;;;11.97;9.08;;;;;;;24.42;64.45;99659.40;1807602;77;20195;-69
2021/06/15 04:57:40;;;;;;;9.18;8.23;;;;;;;24.41;64.18;99663.17;1806515;77;21105;-69
2021/06/15 05:00:09;;;;;;;10.05;7.78;;;;;;;24.47;63.83;99662.67;1803379;77;21390;-69
2021/06/15 05:02:39;;;;;;;8.73;7.78;;;;;;;24.53;63.44;99654.34;1808285;79;21072;-69
2021/06/15 05:05:09;;;;;;;8.30;7.33;;;;;;;24.60;63.17;99653.28;1800736;77;21011;-70
2021/06/15 05:07:35;;;;;;;7.92;7.12;;;;;;;24.67;63.06;99653.88;1801813;77;21556;-69
2021/06/15 05:10:06;;;;;;;8.58;6.87;;;;;;;24.71;63.02;99659.06;1809105;77;21041;-70
2021/06/15 05:12:40;;;;;;;8.53;7.42;;;;;;;24.74;62.72;99658.52;1786472;78;21100;-70
2021/06/15 05:15:09;;;;;;;10.32;7.28;;;;;;;24.78;62.19;99658.26;1803887;77;21042;-69
2021/06/15 05:17:36;;;;;;;8.15;7.37;;;;;;;24.82;61.92;99666.19;1800409;77;21068;-70
2021/06/15 05:20:07;;;;;;;7.60;6.90;;;;;;;24.85;61.62;99660.75;1802071;77;21072;-69
2021/06/15 05:23:02;;;;;;;8.40;7.05;;;;;;;24.89;61.34;99659.95;1801746;77;21135;-69
2021/06/15 05:25:29;;;;;;;8.55;7.00;;;;;;;24.92;61.08;99661.34;1798628;77;21151;-70
2021/06/15 05:27:55;;;;;;;7.12;6.53;;;;;;;24.93;60.62;99654.80;1799575;77;21080;-69
2021/06/15 05:30:23;;;;;;;8.30;6.33;;;;;;;24.95;60.32;99658.62;1803071;77;21263;-69
2021/06/15 05:32:50;;;;;;;12.65;8.45;;;;;;;24.98;59.89;99664.89;1787052;78;21009;-70
2021/06/15 05:35:17;;;;;;;7.92;7.10;;;;;;;25.01;59.46;99664.34;1797909;79;21010;-69
2021/06/15 05:37:44;;;;;;;7.25;6.42;;;;;;;25.04;59.12;99666.00;1800324;78;21819;-69
2021/06/15 05:40:12;;;;;;;7.17;6.53;;;;;;;25.09;58.80;99663.83;1804381;77;21120;-70
2021/06/15 05:42:39;;;;;;;7.67;6.67;;;;;;;25.13;58.41;99659.52;1818488;77;21036;-68
2021/06/15 05:45:07;;;;;;;8.18;6.05;;;;;;;25.16;58.04;99666.31;1822018;77;21632;-68
2021/06/15 05:47:36;;;;;;;6.53;5.95;;;;;;;25.17;57.82;99671.49;1814372;77;21043;-68
2021/06/15 05:50:05;;;;;;;7.17;6.00;;;;;;;25.19;57.54;99673.41;1804595;77;21129;-69
2021/06/15 05:52:31;;;;;;;6.90;6.20;;;;;;;25.22;57.39;99667.97;1820201;78;20982;-69
2021/06/15 05:55:02;;;;;;;6.87;6.28;;;;;;;25.25;57.31;99667.47;1809510;78;21055;-69
2021/06/15 05:57:30;;;;;;;8.95;5.87;;;;;;;25.28;57.11;99663.69;1818866;78;20976;-69
2021/06/15 05:59:57;;;;;;;6.47;5.97;;;;;;;25.33;56.93;99662.87;1812566;77;21010;-69
2021/06/15 06:02:25;;;;;;;8.38;5.83;;;;;;;25.39;56.71;99665.87;1821611;78;21790;-69
2021/06/15 06:10:11;;;;;;;6.70;6.10;;;;;;;25.49;56.44;99665.88;1826504;77;21037;-69
2021/06/15 06:12:38;;;;;;;7.08;6.37;;;;;;;25.52;56.47;99659.11;1825563;78;21052;-69
2021/06/15 06:15:07;;;;;;;5.62;5.12;;;;;;;25.57;56.74;99660.46;1828753;78;21141;-68
2021/06/15 06:17:33;;;;;;;6.10;5.60;;;;;;;25.60;57.16;99654.50;1806479;78;21028;-69
2021/06/15 06:19:59;;;;;;;5.72;5.22;;;;;;;25.65;57.45;99654.52;1813159;78;21041;-72
2021/06/15 06:22:26;;;;;;;6.30;5.78;;;;;;;25.68;57.52;99651.23;1807326;78;21000;-70
2021/06/15 06:24:53;;;;;;;6.40;5.12;;;;;;;25.74;57.55;99656.69;1795832;78;21068;-70
2021/06/15 06:27:19;;;;;;;6.67;5.17;;;;;;;25.77;57.59;99656.97;1812641;78;22927;-71
2021/06/15 06:29:46;;;;;;;6.70;5.92;;;;;;;25.82;57.76;99658.87;1822230;78;21031;-70
2021/06/15 06:32:12;;;;;;;6.72;6.12;;;;;;;25.86;57.49;99653.16;1802968;77;21036;-71
2021/06/15 06:34:39;;;;;;;7.50;6.15;;;;;;;25.89;57.38;99659.42;1822495;78;21096;-71
2021/06/15 06:37:06;;;;;;;8.23;6.45;;;;;;;25.93;57.80;99661.09;1802464;77;21047;-69
2021/06/15 06:39:33;;;;;;;6.67;5.97;;;;;;;25.97;57.76;99654.83;1789408;78;21126;-70
2021/06/15 06:41:59;;;;;;;6.50;5.72;;;;;;;26.01;57.83;99659.19;1795536;77;21027;-68
2021/06/15 06:44:25;;;;;;;10.30;6.50;;;;;;;26.05;58.02;99654.27;1801991;77;21048;-69
2021/06/15 06:46:52;;;;;;;7.62;6.42;;;;;;;26.09;58.18;99660.80;1802708;78;20989;-76
2021/06/15 06:49:18;;;;;;;10.90;7.08;;;;;;;26.14;58.19;99656.47;1808563;78;21045;-70
2021/06/15 06:51:45;;;;;;;10.48;7.45;;;;;;;26.18;58.25;99656.19;1803832;77;21085;-71
2021/06/15 06:54:11;;;;;;;8.88;6.67;;;;;;;26.22;58.23;99658.08;1814462;77;21020;-70
2021/06/15 06:56:38;;;;;;;9.83;7.08;;;;;;;26.26;57.96;99652.91;1797902;77;21075;-69
2021/06/15 06:59:04;;;;;;;9.25;7.37;;;;;;;26.28;57.82;99656.98;1739147;80;21026;-71
2021/06/15 07:01:32;;;;;;;11.03;7.25;;;;;;;26.33;57.77;99658.90;1796038;78;21086;-73
2021/06/15 07:03:58;;;;;;;8.43;6.83;;;;;;;26.37;57.51;99649.08;1813920;77;21137;-71
2021/06/15 07:06:25;;;;;;;9.03;6.75;;;;;;;26.39;57.28;99655.06;1819372;78;20981;-73
2021/06/15 07:08:52;;;;;;;7.70;6.97;;;;;;;26.42;57.05;99657.78;1814592;77;21044;-71
2021/06/15 07:11:20;;;;;;;9.88;6.70;;;;;;;26.46;56.74;99654.77;1809236;77;21103;-70
2021/06/15 07:13:46;;;;;;;6.85;5.90;;;;;;;26.48;56.77;99654.78;1821928;77;21020;-71
2021/06/15 07:16:14;;;;;;;8.18;6.87;;;;;;;26.51;56.46;99647.16;1779937;77;22350;-71
2021/06/15 07:18:41;;;;;;;10.72;6.53;;;;;;;26.52;56.34;99648.25;1785795;78;21000;-69
2021/06/15 07:21:08;;;;;;;7.65;5.92;;;;;;;26.56;56.21;99644.39;1807344;77;21007;-69
2021/06/15 07:23:35;;;;;;;6.83;6.05;;;;;;;26.58;56.18;99641.69;1807822;78;21075;-70
2021/06/15 07:26:01;;;;;;;7.80;6.40;;;;;;;26.62;55.95;99641.98;1810421;77;21503;-67
2021/06/15 07:28:27;;;;;;;7.35;6.60;;;;;;;26.65;55.88;99644.95;1823686;77;21146;-68
2021/06/15 07:30:54;;;;;;;11.15;6.65;;;;;;;26.68;55.76;99637.59;1787643;77;21103;-68
2021/06/15 07:33:20;;;;;;;11.40;6.15;;;;;;;26.71;55.45;99634.04;1789012;77;21575;-70
2021/06/15 07:35:46;;;;;;;6.72;6.08;;;;;;;26.73;55.43;99639.47;1817690;77;20998;-69
2021/06/15 07:38:13;;;;;;;6.80;5.95;;;;;;;26.77;55.22;99638.38;1813680;77;21122;-67
2021/06/15 07:40:39;;;;;;;7.03;6.33;;;;;;;26.78;55.09;99632.66;1814060;77;21127;-68
2021/06/15 07:43:05;;;;;;;7.10;6.20;;;;;;;26.81;54.89;99631.27;1818570;77;21513;-69
2021/06/15 07:45:35;;;;;;;6.72;6.10;;;;;;;26.84;54.74;99633.45;1807282;77;20998;-67
2021/06/15 07:48:02;;;;;;;6.65;6.05;;;;;;;26.86;54.52;99632.63;1822724;77;21088;-68
2021/06/15 07:52:44;;;;;;;6.90;6.30;;;;;;;26.95;54.93;99624.70;1868111;75;22287;-68
2021/06/15 07:55:12;;;;;;;6.60;5.90;;;;;;;26.90;55.12;99626.07;1850852;77;20890;-68
2021/06/15 07:57:39;;;;;;;6.35;5.80;;;;;;;26.94;55.19;99614.88;1842715;77;21133;-69
2021/06/15 08:00:07;;;;;;;7.55;6.53;;;;;;;26.98;54.77;99620.03;1840675;77;21056;-72
2021/06/15 08:02:36;;;;;;;6.55;6.05;;;;;;;27.01;54.55;99614.03;1782210;80;21037;-70
2021/06/15 08:05:03;;;;;;;6.90;6.30;;;;;;;27.04;54.88;99618.38;1786560;79;21517;-69
2021/06/15 08:07:29;;;;;;;6.55;5.90;;;;;;;27.06;54.13;99615.34;1814849;78;20992;-69
2021/06/15 08:09:56;;;;;;;6.08;5.58;;;;;;;27.10;54.40;99616.45;1784587;79;21119;-69
2021/06/15 08:12:23;;;;;;;7.97;6.28;;;;;;;27.13;54.40;99613.70;1783952;79;20990;-68
2021/06/15 08:14:50;;;;;;;7.12;6.53;;;;;;;27.15;54.55;99615.03;1788203;78;22447;-68
2021/06/15 08:17:16;;;;;;;6.25;5.67;;;;;;;27.19;54.68;99610.64;1812220;78;21073;-67
2021/06/15 08:19:43;;;;;;;6.75;6.15;;;;;;;27.21;54.65;99607.09;1787363;78;21502;-68
2021/06/15 08:22:09;;;;;;;5.92;5.53;;;;;;;27.22;54.76;99600.55;1803740;78;21131;-65
2021/06/15 08:24:36;;;;;;;6.47;5.87;;;;;;;27.20;54.72;99594.56;1789127;78;21088;-70
2021/06/15 08:27:04;;;;;;;10.95;9.28;;;;;;;27.25;54.35;99593.73;1792429;79;20992;-72
2021/06/15 08:29:31;;;;;;;13.72;11.97;;;;;;;27.25;54.42;99587.77;1797591;79;21168;-73
2021/06/15 08:31:58;;;;;;;12.98;11.40;;;;;;;27.25;54.28;99589.13;1792340;79;21041;-72
2021/06/15 08:34:25;;;;;;;11.05;8.95;;;;;;;27.25;54.57;99585.03;1799262;79;21190;-74
2021/06/15 08:36:52;;;;;;;9.80;7.95;;;;;;;27.28;54.55;99585.01;1784248;79;21073;-72
2021/06/15 08:39:19;;;;;;;8.25;7.40;;;;;;;27.30;54.62;99587.45;1770868;79;21548;-73
2021/06/15 08:41:47;;;;;;;8.45;6.78;;;;;;;27.32;54.77;99585.27;1778776;79;21076;-72
2021/06/15 08:44:14;;;;;;;9.48;6.70;;;;;;;27.35;54.71;99584.67;1740631;79;21044;-70
2021/06/15 08:46:43;;;;;;;6.65;5.95;;;;;;;27.37;54.62;99577.86;1784763;79;21112;-69
2021/06/15 08:49:10;;;;;;;7.30;6.50;;;;;;;27.37;54.56;99579.22;1789997;79;21068;-71
2021/06/15 08:51:37;;;;;;;6.67;6.08;;;;;;;27.39;54.70;99574.30;1765763;79;21734;-70
2021/06/15 08:54:06;;;;;;;6.75;5.83;;;;;;;27.41;54.81;99584.90;1749459;81;21524;-70
2021/06/15 08:56:34;;;;;;;6.83;6.20;;;;;;;27.44;54.47;99574.80;1820425;78;21104;-69
2021/06/15 08:59:26;;;;;;;7.17;6.67;;;;;;;27.45;54.51;99577.25;1812274;78;21102;-69
2021/06/15 09:02:05;;;;;;;21.15;9.88;;;;;;;27.48;54.44;99569.59;1804237;78;21001;-73
2021/06/15 09:04:33;;;;;;;8.90;6.42;;;;;;;27.48;59.63;99562.77;1790079;78;21096;-74
2021/06/15 09:07:00;;;;;;;13.48;8.10;;;;;;;27.48;59.26;99561.41;1814192;78;21076;-81
2021/06/15 09:09:48;;;;;;;6.97;6.30;;;;;;;27.47;56.57;99560.60;1817878;78;21006;-81
2021/06/15 09:12:21;;;;;;;8.90;5.70;;;;;;;27.48;56.58;99564.14;1809899;78;21090;-81
2021/06/15 09:14:53;;;;;;;6.83;6.33;;;;;;;27.49;56.25;99561.13;1809148;78;21037;-73
2021/06/15 09:17:34;;;;;;;6.42;5.90;;;;;;;27.52;56.31;99557.81;1811432;78;21065;-73
2021/06/15 09:20:30;;;;;;;6.87;6.22;;;;;;;27.54;55.78;99559.70;1816666;78;21558;-74
2021/06/15 09:23:07;;;;;;;6.17;5.65;;;;;;;27.57;55.11;99553.69;1750891;80;21302;-79
2021/06/15 09:25:34;;;;;;;6.45;5.95;;;;;;;27.59;54.79;99556.14;1768306;78;21314;-80
2021/06/15 09:28:18;;;;;;;6.42;5.83;;;;;;;27.62;54.31;99556.91;1808092;77;21041;-72
2021/06/15 09:31:08;;;;;;;6.65;6.05;;;;;;;27.64;54.11;99553.35;1814084;78;21001;-73
2021/06/15 09:33:46;;;;;;;6.30;5.45;;;;;;;27.68;53.96;99549.50;1816494;78;20998;-74
2021/06/15 09:36:27;;;;;;;6.12;5.53;;;;;;;27.71;53.29;99555.77;1814367;78;21634;-72
2021/06/15 09:38:55;;;;;;;5.85;5.35;;;;;;;27.74;53.46;99553.28;1779089;78;21245;-72
2021/06/15 09:41:43;;;;;;;6.25;5.75;;;;;;;27.76;52.96;99552.45;1819062;78;20998;-70
2021/06/15 09:44:29;;;;;;;5.85;5.35;;;;;;;27.78;52.84;99547.51;1818941;78;21097;-64
2021/06/15 09:47:01;;;;;;;6.30;5.70;;;;;;;27.82;53.28;99542.30;1815953;78;21620;-66
2021/06/15 09:49:39;;;;;;;5.62;5.22;;;;;;;27.87;53.41;99542.78;1815330;78;21036;-65
2021/06/15 09:52:27;;;;;;;5.92;5.30;;;;;;;27.89;53.38;99540.05;1816493;77;21295;-66
2021/06/15 09:55:03;;;;;;;5.65;5.25;;;;;;;27.93;53.55;99530.74;1839766;77;21080;-66
2021/06/15 09:57:33;;;;;;;5.35;4.95;;;;;;;27.94;53.05;99532.38;1818009;77;21023;-67
2021/06/15 10:00:16;;;;;;;6.03;5.45;;;;;;;27.96;53.10;99522.80;1815315;77;21031;-67
2021/06/15 10:02:53;;;;;;;6.12;5.53;;;;;;;27.99;52.48;99530.41;1832757;77;21033;-67
2021/06/15 10:05:32;;;;;;;6.00;5.50;;;;;;;28.03;52.46;99532.83;1817882;77;21105;-68
2021/06/15 10:08:02;;;;;;;5.08;4.67;;;;;;;28.06;52.63;99527.89;1825722;77;21543;-69
2021/06/15 10:10:32;;;;;;;5.83;5.35;;;;;;;28.10;52.49;99528.94;1836938;77;21548;-68
2021/06/15 10:12:59;;;;;;;5.62;5.12;;;;;;;28.13;52.05;99526.45;1831164;77;21011;-68
2021/06/15 10:15:27;;;;;;;5.12;4.72;;;;;;;28.19;52.10;99520.37;1813427;77;21079;-67
2021/06/15 10:17:55;;;;;;;5.72;5.20;;;;;;;28.23;51.80;99521.42;1812981;77;21777;-65
2021/06/15 10:20:24;;;;;;;6.33;4.72;;;;;;;28.28;51.48;99520.53;1808341;77;21018;-68
2021/06/15 10:22:51;;;;;;;5.92;4.85;;;;;;;28.32;51.56;99512.84;1836334;77;21074;-68
2021/06/15 10:25:19;;;;;;;5.53;5.00;;;;;;;28.38;51.14;99517.70;1817045;77;21496;-66
2021/06/15 10:27:46;;;;;;;5.37;4.87;;;;;;;28.43;50.81;99516.25;1843379;77;21077;-67
2021/06/15 10:30:13;;;;;;;4.87;4.35;;;;;;;28.46;50.58;99517.61;1825997;77;21634;-66
2021/06/15 10:32:57;;;;;;;5.40;5.00;;;;;;;28.49;50.38;99526.03;1837844;77;21026;-66
2021/06/15 10:35:52;;;;;;;5.03;4.62;;;;;;;28.53;50.22;99515.34;1823965;77;21050;-66
2021/06/15 10:38:33;;;;;;;6.58;4.20;;;;;;;28.57;49.99;99516.41;1835810;77;21623;-66
2021/06/15 10:41:01;;;;;;;4.65;4.22;;;;;;;28.60;49.89;99513.07;1836472;77;20982;-69
2021/06/15 10:43:42;;;;;;;5.03;4.55;;;;;;;28.61;49.56;99523.72;1828838;77;21102;-66
2021/06/15 10:46:20;;;;;;;6.70;4.58;;;;;;;28.66;49.71;99517.92;1816550;77;21037;-70
2021/06/15 10:49:04;;;;;;;4.80;4.42;;;;;;;28.69;49.29;99515.41;1830451;77;21065;-69
2021/06/15 10:51:36;;;;;;;11.43;4.90;;;;;;;28.73;49.19;99515.64;1818166;77;21339;-71
2021/06/15 10:54:25;;;;;;;5.03;4.55;;;;;;;28.71;47.76;99508.30;1831636;77;20997;-72
2021/06/15 10:57:26;;;;;;;7.10;4.78;;;;;;;28.69;46.03;99521.44;1820668;77;21124;-69
2021/06/15 11:00:09;;;;;;;5.50;5.00;;;;;;;28.58;45.01;99521.55;1832428;77;21056;-69
2021/06/15 11:02:36;;;;;;;7.90;5.60;;;;;;;28.49;46.46;99511.02;1814107;77;21051;-73
2021/06/15 11:05:41;;;;;;;8.63;5.12;;;;;;;28.44;48.48;99491.37;1759926;77;21033;-74
2021/06/15 11:08:21;;;;;;;5.78;4.70;;;;;;;28.44;48.96;99481.02;1767582;80;21412;-71
2021/06/15 11:11:01;;;;;;;6.40;4.50;;;;;;;28.40;49.00;99483.52;1781499;80;21194;-70
2021/06/15 11:13:53;;;;;;;5.50;5.00;;;;;;;28.39;48.71;99484.61;1760969;80;21060;-72
2021/06/15 11:16:45;;;;;;;5.85;4.40;;;;;;;28.41;47.72;99480.22;1751738;81;21080;-72
2021/06/15 11:19:19;;;;;;;4.45;4.15;;;;;;;28.45;46.26;99483.98;1745462;81;21504;-71
2021/06/15 11:22:04;;;;;;;4.12;3.72;;;;;;;28.48;44.95;99473.05;1754157;81;21036;-73
2021/06/15 11:25:24;;;;;;;6.28;4.50;;;;;;;28.50;44.03;99470.27;1755270;80;21318;-73
2021/06/15 11:27:19;;;;;;;4.83;4.33;;;;;;;28.52;43.48;99463.19;1735506;80;21505;-76
2021/06/15 11:29:47;;;;;;;4.72;3.75;;;;;;;28.57;43.08;99445.36;1747797;80;21084;-80
2021/06/15 11:32:23;;;;;;;3.98;3.62;;;;;;;28.60;43.29;99448.30;1753113;80;21057;-80
2021/06/15 11:35:02;;;;;;;4.53;3.90;;;;;;;28.63;42.87;99439.52;1751854;81;21321;-82
2021/06/15 11:37:33;;;;;;;4.03;3.60;;;;;;;28.67;43.18;99441.67;1753280;80;21046;-76
2021/06/15 11:40:30;;;;;;;4.42;3.60;;;;;;;28.66;44.01;99437.30;1744874;81;21079;-79
2021/06/15 11:43:12;;;;;;;4.92;4.20;;;;;;;28.63;44.38;99434.05;1752340;80;20973;-82
2021/06/15 11:45:44;;;;;;;4.42;4.03;;;;;;;28.62;44.06;99441.17;1747810;81;21118;-85
2021/06/15 11:48:31;;;;;;;4.03;3.62;;;;;;;28.60;43.80;99443.39;1748111;80;21116;-76
2021/06/15 11:51:01;;;;;;;4.22;3.92;;;;;;;28.59;43.87;99448.05;1758451;80;21139;-72
2021/06/15 11:53:29;;;;;;;4.78;3.95;;;;;;;28.57;44.37;99440.70;1767764;80;20987;-70
2021/06/15 11:56:02;;;;;;;4.30;4.00;;;;;;;28.59;45.20;99442.58;1754901;80;21057;-68
2021/06/15 11:58:32;;;;;;;4.25;3.70;;;;;;;28.65;45.50;99447.42;1765323;80;21009;-68
2021/06/15 12:01:10;;;;;;;4.00;3.70;;;;;;;28.73;45.77;99431.72;1762420;80;21097;-76
2021/06/15 12:03:44;;;;;;;4.47;4.12;;;;;;;28.82;45.94;99431.31;1752321;80;21138;-68